Time;durP1;ratioP1;P1;durP2;ratioP2;P2;SDS_P1;SDS_P2;PMS_P1;PMS_P2;Temp;Humidity;BMP_temperature;BMP_pressure;BME280_temperature;BME280_humidity;BME280_pressure;Samples;Min_cycle;Max_cycle;Signal;HPM_P1;HPM_P2
2022/05/11 00:00:36;;;;;;;8.18;3.60;;;24.10;40.30;;;;;;6283614;27;81163;-63
2022/05/11 00:03:36;;;;;;;6.30;3.53;;;24.10;40.20;;;;;;6282760;27;81486;-63
2022/05/11 00:06:37;;;;;;;7.85;3.90;;;24.10;40.30;;;;;;6283416;27;80595;-62
2022/05/11 00:09:37;;;;;;;7.22;3.53;;;24.10;40.40;;;;;;6282972;27;80371;-62
2022/05/11 00:12:38;;;;;;;9.05;3.70;;;24.10;40.20;;;;;;6282731;27;80491;-62
2022/05/11 00:15:38;;;;;;;7.32;4.20;;;24.10;40.20;;;;;;6283017;27;80532;-63
2022/05/11 00:18:39;;;;;;;5.78;3.17;;;24.10;40.40;;;;;;6273305;27;80626;-62
2022/05/11 00:21:39;;;;;;;5.72;3.53;;;24.00;40.40;;;;;;6281309;27;81648;-62
2022/05/11 00:24:40;;;;;;;8.18;3.22;;;24.10;40.40;;;;;;6282808;27;82099;-63
2022/05/11 00:27:41;;;;;;;5.18;3.42;;;24.10;40.40;;;;;;6283158;27;81672;-62
2022/05/11 00:30:41;;;;;;;5.95;3.30;;;24.10;40.40;;;;;;6283378;27;80655;-63
2022/05/11 00:33:42;;;;;;;6.38;3.63;;;24.10;40.40;;;;;;6274802;27;81153;-63
2022/05/11 00:36:42;;;;;;;5.45;3.55;;;24.00;40.30;;;;;;6283186;27;80251;-63
2022/05/11 00:39:43;;;;;;;5.55;3.15;;;24.00;40.30;;;;;;6282683;27;80499;-63
2022/05/11 00:42:43;;;;;;;9.73;4.60;;;24.10;40.40;;;;;;6282574;27;80684;-63
2022/05/11 00:45:44;;;;;;;5.32;3.10;;;24.00;40.30;;;;;;6278931;27;80266;-63
2022/05/11 00:52:03;;;;;;;12.65;3.40;;;24.00;40.30;;;;;;6282290;27;80356;-62
2022/05/11 00:55:04;;;;;;;4.63;3.13;;;24.00;40.40;;;;;;6274487;27;80679;-62
2022/05/11 00:58:04;;;;;;;8.65;3.67;;;24.00;40.30;;;;;;6282015;27;80484;-61
2022/05/11 01:01:05;;;;;;;4.75;3.63;;;24.00;40.30;;;;;;6272022;27;80617;-62
2022/05/11 01:04:05;;;;;;;7.10;4.05;;;24.00;40.40;;;;;;6282302;27;80579;-62
2022/05/11 01:07:06;;;;;;;6.25;3.58;;;24.10;40.30;;;;;;6280634;27;81705;-62
2022/05/11 01:10:06;;;;;;;7.35;3.70;;;24.10;40.40;;;;;;6280865;27;80015;-62
2022/05/11 01:13:07;;;;;;;6.25;3.75;;;24.00;40.40;;;;;;6281445;27;80324;-62
2022/05/11 01:16:08;;;;;;;8.43;3.70;;;24.10;40.40;;;;;;6273214;27;80864;-62
2022/05/11 01:19:08;;;;;;;7.00;3.38;;;24.10;40.40;;;;;;6286586;27;81136;-62
2022/05/11 01:22:09;;;;;;;8.80;3.47;;;24.10;40.40;;;;;;6286063;27;81414;-63
2022/05/11 01:25:09;;;;;;;5.97;3.53;;;24.10;40.60;;;;;;6286136;27;80481;-62
2022/05/11 01:28:11;;;;;;;5.82;3.38;;;24.10;40.40;;;;;;6274369;27;80136;-62
2022/05/11 01:31:12;;;;;;;6.90;3.53;;;24.00;40.60;;;;;;6286160;27;80493;-62
2022/05/11 01:34:12;;;;;;;7.95;3.42;;;24.00;40.60;;;;;;6286174;27;80335;-62
2022/05/11 01:37:13;;;;;;;5.68;3.40;;;24.10;40.60;;;;;;6285973;27;80498;-62
2022/05/11 01:40:13;;;;;;;6.05;3.38;;;24.10;40.50;;;;;;6286077;27;80715;-62
2022/05/11 01:43:14;;;;;;;8.60;3.80;;;24.10;40.70;;;;;;6273093;27;81422;-62
2022/05/11 01:46:16;;;;;;;9.07;3.63;;;24.10;40.90;;;;;;6284539;27;83730;-63
2022/05/11 01:49:16;;;;;;;4.32;3.25;;;24.10;40.90;;;;;;6285518;27;80338;-63
2022/05/11 01:52:17;;;;;;;5.25;3.45;;;24.10;40.70;;;;;;6285805;27;80544;-63
2022/05/11 01:55:17;;;;;;;6.20;3.63;;;24.00;40.70;;;;;;6286274;27;80407;-63
2022/05/11 01:58:18;;;;;;;5.55;3.50;;;24.10;41.00;;;;;;6284345;27;80210;-63
2022/05/11 02:01:19;;;;;;;4.22;2.90;;;24.10;40.90;;;;;;6284134;27;81408;-63
2022/05/11 02:07:51;;;;;;;5.25;3.10;;;24.10;41.00;;;;;;6285453;27;80445;-62
2022/05/11 02:10:53;;;;;;;5.80;3.42;;;24.10;40.90;;;;;;6283126;27;80891;-62
2022/05/11 02:13:56;;;;;;;4.72;3.20;;;24.10;40.90;;;;;;6284977;27;80265;-62
2022/05/11 02:16:57;;;;;;;4.05;3.13;;;24.00;40.90;;;;;;6285325;27;80304;-63
2022/05/11 02:19:57;;;;;;;6.80;3.33;;;24.10;40.90;;;;;;6285289;27;80209;-63
2022/05/11 02:22:58;;;;;;;6.10;3.35;;;24.10;41.10;;;;;;6283698;27;83358;-63
2022/05/11 02:25:59;;;;;;;5.28;3.50;;;24.10;41.10;;;;;;6281753;27;81355;-63
2022/05/11 02:28:59;;;;;;;4.53;3.05;;;24.10;41.10;;;;;;6284039;27;80681;-63
2022/05/11 02:32:00;;;;;;;5.88;3.42;;;24.10;41.20;;;;;;6284863;27;81546;-63
2022/05/11 02:35:12;;;;;;;5.50;3.42;;;24.10;41.20;;;;;;6283692;27;80629;-63
2022/05/11 02:38:13;;;;;;;4.35;2.97;;;24.10;41.20;;;;;;6281585;27;80548;-63
2022/05/11 02:41:14;;;;;;;7.43;3.60;;;24.10;41.00;;;;;;6283392;27;81311;-62
2022/05/11 02:44:14;;;;;;;4.10;2.83;;;24.10;41.00;;;;;;6283291;27;81496;-62
2022/05/11 02:47:15;;;;;;;3.67;3.10;;;24.10;41.10;;;;;;6284561;27;80320;-62
2022/05/11 02:50:16;;;;;;;5.80;3.45;;;24.10;41.20;;;;;;6284690;27;80443;-63
2022/05/11 02:53:16;;;;;;;4.28;3.05;;;24.00;41.00;;;;;;6280153;27;80876;-63
2022/05/11 02:56:17;;;;;;;3.72;2.85;;;24.00;41.00;;;;;;6285233;27;80595;-63
2022/05/11 02:59:17;;;;;;;6.13;3.65;;;24.00;40.90;;;;;;6284802;27;81013;-64
2022/05/11 03:02:19;;;;;;;6.18;3.88;;;24.00;41.00;;;;;;6284827;27;80783;-64
2022/05/11 03:05:19;;;;;;;5.65;3.40;;;24.00;41.00;;;;;;6283347;27;80679;-63
2022/05/11 03:08:20;;;;;;;4.45;2.95;;;24.00;41.10;;;;;;6284451;27;80388;-63
2022/05/11 03:11:21;;;;;;;4.38;2.70;;;24.00;41.10;;;;;;6284215;27;80461;-62
2022/05/11 03:14:22;;;;;;;8.00;3.97;;;24.00;41.10;;;;;;6280380;27;80634;-62
2022/05/11 03:17:23;;;;;;;6.78;3.40;;;24.00;41.30;;;;;;6283432;27;80963;-62
2022/05/11 03:20:25;;;;;;;5.55;3.28;;;24.00;41.20;;;;;;6279501;27;80898;-62
2022/05/11 03:23:27;;;;;;;4.53;3.20;;;24.00;41.40;;;;;;6282534;27;83528;-63
2022/05/11 03:26:27;;;;;;;4.35;3.28;;;24.10;41.40;;;;;;6284227;27;80329;-63
2022/05/11 03:29:28;;;;;;;6.13;3.50;;;24.00;41.30;;;;;;6282266;27;80252;-62
2022/05/11 03:35:48;;;;;;;6.05;3.88;;;24.10;41.20;;;;;;6284021;27;80846;-62
2022/05/11 03:38:49;;;;;;;5.65;3.15;;;24.10;41.40;;;;;;6281800;27;80402;-62
2022/05/11 03:41:50;;;;;;;6.22;2.85;;;24.10;41.70;;;;;;6277342;27;81042;-62
2022/05/11 03:44:50;;;;;;;6.75;3.15;;;24.10;42.20;;;;;;6283856;27;80554;-62
2022/05/11 03:47:51;;;;;;;6.68;3.25;;;24.10;42.20;;;;;;6283274;27;80978;-71
2022/05/11 03:50:51;;;;;;;6.95;3.70;;;24.10;42.20;;;;;;6283426;27;81107;-62
2022/05/11 03:53:52;;;;;;;6.22;3.30;;;24.10;42.40;;;;;;6283478;27;80506;-62
2022/05/11 03:56:52;;;;;;;4.57;3.00;;;24.10;42.40;;;;;;6283345;27;80512;-62
2022/05/11 03:59:53;;;;;;;7.88;3.60;;;24.10;42.60;;;;;;6283290;27;80305;-63
2022/05/11 04:02:53;;;;;;;7.30;3.08;;;24.20;42.80;;;;;;6283365;27;80429;-63
2022/05/11 04:05:54;;;;;;;4.97;3.15;;;24.20;42.80;;;;;;6282863;27;81444;-62
2022/05/11 04:08:55;;;;;;;7.13;3.13;;;24.20;43.20;;;;;;6283115;27;80149;-62
2022/05/11 04:11:55;;;;;;;15.27;3.80;;;24.20;42.90;;;;;;6282844;27;80685;-62
2022/05/11 04:14:56;;;;;;;10.32;3.78;;;24.20;43.10;;;;;;6280933;27;82967;-62
2022/05/11 04:17:56;;;;;;;8.27;3.15;;;24.20;43.20;;;;;;6276402;27;80426;-62
2022/05/11 04:20:57;;;;;;;4.53;3.13;;;24.30;43.20;;;;;;6283180;27;80282;-61
2022/05/11 04:23:57;;;;;;;8.52;3.95;;;24.30;43.50;;;;;;6283267;27;80689;-63
2022/05/11 04:27:00;;;;;;;6.53;2.53;;;24.30;43.50;;;;;;6283319;27;80306;-63
2022/05/11 04:30:01;;;;;;;9.73;3.50;;;24.30;43.60;;;;;;6283077;27;80317;-62
2022/05/11 04:33:02;;;;;;;8.85;3.78;;;24.30;43.70;;;;;;6282696;27;81093;-64
2022/05/11 04:36:02;;;;;;;6.22;3.20;;;24.30;43.60;;;;;;6282750;27;80617;-67
2022/05/11 04:39:03;;;;;;;12.02;3.30;;;24.30;43.90;;;;;;6282773;27;80640;-65
2022/05/11 04:42:04;;;;;;;5.45;3.28;;;24.30;43.90;;;;;;6282686;27;80915;-62
2022/05/11 04:45:04;;;;;;;10.98;3.45;;;24.30;43.80;;;;;;6274096;27;80543;-68
2022/05/11 04:48:05;;;;;;;8.20;3.88;;;24.30;43.60;;;;;;6282759;27;80560;-71
2022/05/11 04:51:05;;;;;;;9.43;3.13;;;24.40;43.80;;;;;;6281602;27;80707;-62
2022/05/11 04:54:06;;;;;;;14.73;3.30;;;24.40;43.90;;;;;;6282159;27;81597;-61
2022/05/11 04:57:07;;;;;;;8.20;3.60;;;24.40;43.90;;;;;;6282244;27;85523;-65
2022/05/11 05:00:10;;;;;;;9.63;3.05;;;24.40;44.00;;;;;;6273369;27;80342;-62
2022/05/11 05:03:10;;;;;;;8.05;3.58;;;24.40;43.90;;;;;;6270861;27;84180;-62
2022/05/11 05:06:11;;;;;;;6.25;3.65;;;24.40;43.80;;;;;;6282273;27;80355;-62
2022/05/11 05:09:11;;;;;;;5.35;3.50;;;24.40;43.70;;;;;;6281925;27;80306;-62
2022/05/11 05:12:12;;;;;;;6.03;3.67;;;24.40;43.60;;;;;;6282424;27;81435;-61
2022/05/11 05:15:13;;;;;;;9.95;4.28;;;24.40;43.50;;;;;;6280508;27;83773;-62
2022/05/11 05:18:13;;;;;;;10.48;4.38;;;24.40;43.40;;;;;;6282037;27;80506;-62
2022/05/11 05:21:14;;;;;;;14.95;3.88;;;24.40;43.40;;;;;;6281617;27;80413;-62
2022/05/11 05:24:14;;;;;;;10.32;3.72;;;24.40;43.50;;;;;;6282495;27;80738;-61
2022/05/11 05:27:15;;;;;;;10.57;3.88;;;24.40;43.50;;;;;;6275799;27;80349;-61
2022/05/11 05:33:35;;;;;;;9.25;3.80;;;24.30;43.40;;;;;;6282067;27;81642;-61
2022/05/11 05:36:38;;;;;;;7.00;4.05;;;24.40;43.50;;;;;;6281902;27;81257;-62
2022/05/11 05:39:39;;;;;;;8.38;3.58;;;24.40;43.50;;;;;;6281474;27;83365;-62
2022/05/11 05:42:39;;;;;;;7.82;3.67;;;24.30;43.40;;;;;;6281732;27;80617;-60
2022/05/11 05:45:40;;;;;;;9.60;4.30;;;24.30;43.60;;;;;;6280474;27;79946;-62
2022/05/11 05:48:41;;;;;;;12.52;4.57;;;24.30;43.60;;;;;;6281787;27;80633;-65
2022/05/11 05:51:42;;;;;;;14.60;5.10;;;24.20;43.70;;;;;;6280401;27;80712;-64
2022/05/11 05:54:43;;;;;;;7.07;4.75;;;24.10;44.00;;;;;;6281995;27;80344;-65
2022/05/11 05:57:43;;;;;;;15.93;5.47;;;24.10;44.20;;;;;;6281632;27;81662;-64
2022/05/11 06:00:44;;;;;;;15.38;6.00;;;24.10;44.50;;;;;;6281676;27;80478;-63
2022/05/11 06:03:44;;;;;;;11.68;5.60;;;24.10;44.60;;;;;;6286443;27;80733;-63
2022/05/11 06:06:45;;;;;;;16.05;5.28;;;24.00;44.90;;;;;;6285664;27;80135;-64
2022/05/11 06:09:45;;;;;;;13.85;5.10;;;24.00;44.90;;;;;;6284139;27;82222;-63
2022/05/11 06:12:46;;;;;;;14.40;5.40;;;24.00;44.70;;;;;;6285514;27;80536;-64
2022/05/11 06:15:46;;;;;;;11.70;4.60;;;24.00;44.90;;;;;;6285020;27;80510;-63
2022/05/11 06:18:48;;;;;;;9.40;4.80;;;24.00;44.90;;;;;;6285198;27;81577;-64
2022/05/11 06:21:48;;;;;;;8.52;4.70;;;23.90;44.50;;;;;;6285238;27;81745;-64
2022/05/11 06:24:49;;;;;;;7.28;3.60;;;23.80;44.00;;;;;;6281369;27;81235;-64
2022/05/11 06:27:49;;;;;;;6.40;3.60;;;23.40;44.20;;;;;;6271757;27;81049;-64
2022/05/11 06:30:50;;;;;;;11.25;3.47;;;23.00;44.20;;;;;;6279977;27;83046;-64
2022/05/11 06:33:53;;;;;;;8.52;3.35;;;22.70;44.70;;;;;;6283398;27;82367;-64
2022/05/11 06:36:54;;;;;;;5.75;3.08;;;22.50;45.20;;;;;;6282005;27;80471;-64
2022/05/11 06:39:55;;;;;;;6.03;3.33;;;22.50;45.50;;;;;;6284907;27;80640;-64
2022/05/11 06:42:56;;;;;;;8.10;3.67;;;22.50;45.50;;;;;;6285055;27;80882;-64
2022/05/11 06:45:56;;;;;;;11.80;3.50;;;22.70;45.30;;;;;;6284669;27;81604;-63
2022/05/11 06:48:57;;;;;;;7.43;3.17;;;22.90;44.90;;;;;;6284622;27;81448;-63
2022/05/11 06:51:57;;;;;;;12.57;3.72;;;23.10;44.70;;;;;;6281255;27;80344;-63
2022/05/11 07:01:37;;;;;;;10.77;3.10;;;23.30;44.70;;;;;;6277011;27;80490;-65
2022/05/11 07:04:37;;;;;;;5.85;3.80;;;23.50;44.60;;;;;;6278724;27;80102;-64
2022/05/11 07:07:39;;;;;;;7.05;3.97;;;23.60;44.60;;;;;;6273416;27;82923;-64
2022/05/11 07:10:42;;;;;;;9.70;3.97;;;23.70;44.70;;;;;;6285388;27;81278;-64
2022/05/11 07:13:43;;;;;;;7.43;2.88;;;23.60;44.80;;;;;;6278706;27;83029;-64
2022/05/11 07:16:43;;;;;;;7.30;3.13;;;23.70;44.90;;;;;;6281707;27;80395;-64
2022/05/11 07:19:44;;;;;;;7.38;3.80;;;23.70;44.80;;;;;;6275721;27;80393;-65
2022/05/11 07:22:44;;;;;;;6.90;3.17;;;23.80;44.90;;;;;;6279220;27;81060;-67
2022/05/11 07:25:45;;;;;;;13.07;4.72;;;23.80;45.00;;;;;;6279850;27;80435;-66
2022/05/11 07:28:45;;;;;;;12.55;3.50;;;23.80;45.00;;;;;;6279594;27;80385;-65
2022/05/11 07:31:46;;;;;;;5.43;3.35;;;23.90;45.00;;;;;;6275115;27;80850;-65
2022/05/11 07:34:46;;;;;;;6.43;3.60;;;23.90;44.80;;;;;;6282887;27;83863;-66
2022/05/11 07:37:47;;;;;;;8.07;4.07;;;23.90;44.80;;;;;;6284711;27;80813;-65
2022/05/11 07:40:48;;;;;;;11.65;3.80;;;24.00;44.50;;;;;;6284981;27;81479;-65
2022/05/11 07:43:48;;;;;;;9.43;4.20;;;24.00;43.80;;;;;;6284432;27;80813;-65
2022/05/11 07:46:49;;;;;;;12.95;3.72;;;23.90;44.30;;;;;;6284253;27;80375;-65
2022/05/11 07:49:49;;;;;;;16.08;4.70;;;24.00;44.60;;;;;;6277728;27;80696;-67
2022/05/11 07:52:50;;;;;;;39.65;8.82;;;24.10;45.30;;;;;;6271284;27;80375;-66
2022/05/11 07:59:52;;;;;;;28.65;6.47;;;24.20;46.10;;;;;;6282676;27;81579;-70
2022/05/11 08:02:30;;;;;;;32.05;7.32;;;24.30;45.00;;;;;;6263766;27;80511;-70
2022/05/11 08:05:32;;;;;;;13.20;4.65;;;24.30;45.40;;;;;;6259648;27;80621;-68
2022/05/11 08:08:32;;;;;;;19.88;5.57;;;24.40;44.40;;;;;;6271839;27;82139;-68
2022/05/11 08:11:33;;;;;;;11.27;4.40;;;24.40;44.30;;;;;;6283132;27;80727;-69
2022/05/11 08:14:33;;;;;;;17.17;4.35;;;24.50;44.20;;;;;;6283861;27;80349;-67
2022/05/11 08:17:34;;;;;;;19.30;4.28;;;24.50;43.90;;;;;;6284448;27;80253;-69
2022/05/11 08:20:34;;;;;;;22.85;4.95;;;24.60;43.80;;;;;;6284122;27;81451;-70
2022/05/11 08:23:35;;;;;;;11.70;4.30;;;24.60;43.70;;;;;;6278725;27;80403;-69
2022/05/11 08:26:35;;;;;;;16.45;4.00;;;24.60;43.60;;;;;;6281304;27;80186;-68
2022/05/11 08:36:15;;;;;;;24.60;4.80;;;24.70;43.60;;;;;;6284086;27;80309;-69
2022/05/11 08:39:16;;;;;;;20.40;4.57;;;24.70;43.50;;;;;;6280513;27;80599;-69
2022/05/11 08:42:16;;;;;;;13.55;4.00;;;24.70;43.50;;;;;;6283492;27;80946;-69
2022/05/11 08:45:17;;;;;;;12.38;4.45;;;24.70;43.50;;;;;;6283213;27;80656;-68
2022/05/11 08:48:17;;;;;;;11.05;3.33;;;24.80;43.50;;;;;;6260426;27;80730;-70
2022/05/11 08:51:18;;;;;;;9.38;3.28;;;24.80;43.40;;;;;;6283216;27;80970;-73
2022/05/11 08:54:19;;;;;;;9.63;3.42;;;24.70;43.70;;;;;;6262940;27;80221;-71
2022/05/11 08:57:20;;;;;;;8.90;3.33;;;24.80;43.90;;;;;;6274382;27;84381;-65
2022/05/11 09:00:20;;;;;;;11.50;4.30;;;24.80;44.20;;;;;;6283952;27;80556;-76
2022/05/11 09:03:21;;;;;;;24.52;4.38;;;24.80;44.60;;;;;;6276909;27;80899;-73
2022/05/11 09:06:24;;;;;;;11.68;4.47;;;24.90;44.50;;;;;;6277745;27;80446;-74
2022/05/11 09:09:24;;;;;;;8.32;3.63;;;24.90;45.30;;;;;;6265285;27;80402;-75
2022/05/11 09:12:26;;;;;;;15.35;4.70;;;24.90;44.70;;;;;;6271058;27;80163;-71
2022/05/11 09:15:26;;;;;;;8.18;3.85;;;24.90;44.20;;;;;;6264638;27;80793;-71
2022/05/11 09:18:27;;;;;;;6.47;3.38;;;24.90;43.70;;;;;;6282804;27;82061;-65
2022/05/11 09:21:29;;;;;;;7.30;3.60;;;25.00;43.70;;;;;;6267863;27;80386;-65
2022/05/11 09:24:29;;;;;;;5.22;3.38;;;25.10;43.60;;;;;;6280496;27;80951;-67
2022/05/11 09:27:30;;;;;;;6.90;3.30;;;25.10;43.10;;;;;;6279495;27;80243;-74
2022/05/11 09:30:30;;;;;;;5.53;3.38;;;25.10;43.50;;;;;;6278879;27;80877;-71
2022/05/11 09:33:31;;;;;;;4.95;3.33;;;25.20;43.60;;;;;;6282477;27;80380;-74
2022/05/11 09:36:31;;;;;;;5.82;4.05;;;25.30;43.80;;;;;;6284028;27;81652;-73
2022/05/11 09:39:33;;;;;;;17.02;3.63;;;25.30;44.20;;;;;;6279803;27;80387;-71
2022/05/11 09:42:34;;;;;;;3.70;2.97;;;25.40;44.50;;;;;;6283301;27;81018;-72
2022/05/11 09:45:34;;;;;;;3.55;2.95;;;25.40;43.60;;;;;;6265312;27;81295;-68
2022/05/11 09:48:37;;;;;;;11.55;3.45;;;25.40;42.50;;;;;;6264189;27;80847;-69
2022/05/11 09:51:37;;;;;;;4.55;2.80;;;25.40;42.40;;;;;;6265608;27;80367;-68
2022/05/11 09:54:38;;;;;;;5.82;3.42;;;25.50;42.40;;;;;;6268722;27;80453;-68
2022/05/11 09:57:38;;;;;;;6.13;3.38;;;25.50;42.30;;;;;;6267206;27;86811;-68
2022/05/11 10:00:39;;;;;;;6.95;3.55;;;25.60;42.00;;;;;;6285425;27;82143;-69
2022/05/11 10:03:40;;;;;;;5.85;3.40;;;25.60;41.60;;;;;;6280849;27;82496;-67
2022/05/11 10:06:40;;;;;;;12.40;7.63;;;25.70;41.50;;;;;;6268173;27;81144;-76
2022/05/11 10:09:41;;;;;;;10.20;5.05;;;25.70;41.30;;;;;;6277623;27;81126;-67
2022/05/11 10:12:41;;;;;;;8.05;3.63;;;25.80;41.50;;;;;;6270650;27;80409;-68
2022/05/11 10:22:22;;;;;;;4.57;3.38;;;25.80;41.70;;;;;;6277249;27;80423;-71
2022/05/11 10:25:24;;;;;;;7.60;3.72;;;25.80;42.00;;;;;;6265891;27;80279;-71
2022/05/11 10:28:24;;;;;;;6.10;4.35;;;25.80;42.20;;;;;;6269908;27;80437;-71
2022/05/11 10:31:26;;;;;;;27.55;4.38;;;25.80;41.90;;;;;;6268361;27;80428;-72
2022/05/11 10:34:26;;;;;;;7.47;3.72;;;25.80;41.60;;;;;;6267939;27;81133;-71
2022/05/11 10:37:27;;;;;;;5.53;3.50;;;25.90;40.90;;;;;;6267398;27;80427;-71
2022/05/11 10:40:27;;;;;;;4.78;3.90;;;26.00;40.70;;;;;;6264880;27;80447;-67
2022/05/11 10:43:28;;;;;;;8.73;4.07;;;25.90;40.30;;;;;;6262143;27;80230;-74
2022/05/11 10:46:28;;;;;;;8.25;4.38;;;26.10;40.20;;;;;;6269558;27;80180;-76
2022/05/11 10:49:29;;;;;;;12.18;4.25;;;26.10;40.50;;;;;;6284504;27;80382;-73
2022/05/11 10:52:30;;;;;;;7.55;3.10;;;26.20;40.60;;;;;;6285585;27;81521;-73
2022/05/11 10:55:30;;;;;;;4.97;3.78;;;26.10;40.70;;;;;;6268588;27;80327;-67
2022/05/11 10:58:31;;;;;;;5.97;3.63;;;26.20;40.40;;;;;;6271807;27;80735;-68
2022/05/11 11:01:31;;;;;;;8.80;3.33;;;26.20;40.40;;;;;;6273370;27;81752;-68
2022/05/11 11:04:32;;;;;;;7.45;3.33;;;26.20;39.60;;;;;;6263470;27;80516;-67
2022/05/11 11:07:32;;;;;;;3.92;3.25;;;26.20;40.00;;;;;;6261835;27;80545;-67
2022/05/11 11:10:33;;;;;;;7.40;3.40;;;26.10;40.00;;;;;;6260675;27;80471;-73
2022/05/11 11:13:34;;;;;;;7.72;3.13;;;26.10;40.40;;;;;;6264768;27;80287;-68
2022/05/11 11:16:34;;;;;;;5.03;3.22;;;26.10;40.40;;;;;;6269083;27;80583;-68
2022/05/11 11:19:35;;;;;;;4.68;3.25;;;26.20;40.30;;;;;;6265356;27;80358;-68
2022/05/11 11:22:35;;;;;;;9.32;3.38;;;26.20;40.20;;;;;;6265066;27;81040;-68
2022/05/11 11:25:36;;;;;;;4.00;3.15;;;26.20;39.30;;;;;;6261426;27;80878;-75
2022/05/11 11:28:37;;;;;;;6.25;3.55;;;26.20;39.20;;;;;;6284498;27;82102;-68
2022/05/11 11:31:37;;;;;;;4.22;3.40;;;26.30;39.50;;;;;;6284787;27;80214;-67
2022/05/11 11:34:38;;;;;;;11.20;5.40;;;26.30;39.70;;;;;;6272103;27;81494;-67
2022/05/11 11:37:38;;;;;;;6.78;4.13;;;26.50;39.90;;;;;;6257787;27;80887;-68
2022/05/11 11:40:39;;;;;;;4.97;3.65;;;26.50;39.30;;;;;;6284126;27;87635;-68
2022/05/11 11:43:40;;;;;;;5.85;3.72;;;26.50;39.60;;;;;;6284873;27;80524;-68
2022/05/11 11:46:41;;;;;;;7.35;4.40;;;26.40;39.80;;;;;;6282569;27;81518;-67
2022/05/11 11:49:41;;;;;;;4.35;3.47;;;26.30;39.80;;;;;;6284643;27;81124;-67
2022/05/11 11:52:43;;;;;;;5.93;3.63;;;26.30;40.10;;;;;;6283610;27;81542;-67
2022/05/11 11:55:44;;;;;;;5.30;3.65;;;26.20;40.10;;;;;;6283845;27;81288;-67
2022/05/11 11:58:44;;;;;;;7.88;3.58;;;26.40;39.80;;;;;;6277396;27;83908;-68
2022/05/11 12:01:45;;;;;;;5.18;2.95;;;26.40;39.30;;;;;;6281480;27;80428;-67
2022/05/11 12:04:45;;;;;;;7.88;3.67;;;26.40;39.50;;;;;;6284551;27;80416;-68
2022/05/11 12:17:43;;;;;;;7.70;3.50;;;26.50;39.30;;;;;;6270528;27;79934;-67
2022/05/11 12:20:44;;;;;;;3.42;3.10;;;26.40;39.10;;;;;;6260218;27;82500;-66
2022/05/11 12:23:44;;;;;;;16.75;4.57;;;26.50;38.70;;;;;;6262502;27;87058;-66
2022/05/11 12:26:45;;;;;;;6.78;3.50;;;26.50;38.70;;;;;;6265194;27;81405;-67
2022/05/11 12:29:55;;;;;;;8.50;3.60;;;26.50;38.80;;;;;;6263890;27;80887;-67
2022/05/11 12:32:56;;;;;;;12.02;3.47;;;26.50;38.60;;;;;;6262655;27;81519;-67
2022/05/11 12:35:56;;;;;;;7.38;3.45;;;26.60;38.20;;;;;;6266135;27;80561;-68
2022/05/11 12:38:57;;;;;;;3.38;3.08;;;26.60;38.40;;;;;;6275205;27;80229;-68
2022/05/11 12:41:58;;;;;;;7.18;3.45;;;26.60;37.70;;;;;;6282411;27;80476;-68
2022/05/11 12:44:58;;;;;;;3.33;3.03;;;26.70;37.80;;;;;;6259429;27;83595;-66
2022/05/11 12:48:02;;;;;;;9.68;6.47;;;26.70;37.90;;;;;;6270788;27;81457;-74
2022/05/11 12:51:03;;;;;;;7.65;3.63;;;26.80;37.80;;;;;;6283057;27;80455;-66
2022/05/11 12:54:05;;;;;;;7.85;3.63;;;26.80;38.40;;;;;;6281548;27;80439;-64
2022/05/11 12:57:08;;;;;;;10.77;4.55;;;26.70;38.30;;;;;;6283618;27;80575;-66
2022/05/11 13:00:09;;;;;;;5.60;3.45;;;26.70;39.30;;;;;;6277157;27;81583;-66
2022/05/11 13:03:09;;;;;;;7.43;3.55;;;26.60;38.80;;;;;;6281762;27;80604;-66
2022/05/11 13:06:10;;;;;;;7.63;3.33;;;26.60;38.90;;;;;;6282142;27;81063;-67
2022/05/11 13:09:10;;;;;;;6.72;2.90;;;26.50;38.50;;;;;;6281851;27;80275;-66
2022/05/11 13:12:11;;;;;;;6.40;3.30;;;26.40;38.50;;;;;;6282557;27;81886;-66
2022/05/11 13:15:11;;;;;;;5.88;3.53;;;26.30;38.70;;;;;;6285877;27;80612;-66
2022/05/11 13:18:12;;;;;;;5.72;3.35;;;26.30;38.50;;;;;;6286085;27;80646;-66
2022/05/11 13:21:12;;;;;;;4.65;3.28;;;26.30;38.70;;;;;;6286821;27;80357;-67
2022/05/11 13:24:13;;;;;;;9.02;3.10;;;26.30;38.30;;;;;;6286278;27;81474;-66
2022/05/11 13:27:13;;;;;;;3.55;2.67;;;26.30;37.70;;;;;;6284299;27;79881;-66
2022/05/11 13:30:14;;;;;;;7.10;2.80;;;26.30;38.20;;;;;;6286431;27;80948;-67
2022/05/11 13:33:14;;;;;;;6.88;3.05;;;26.30;38.20;;;;;;6286113;27;81856;-66
2022/05/11 13:36:15;;;;;;;4.07;3.38;;;26.30;38.30;;;;;;6287000;27;81041;-66
2022/05/11 13:39:16;;;;;;;5.88;2.97;;;26.30;38.70;;;;;;6286798;27;80373;-66
2022/05/11 13:42:17;;;;;;;6.35;3.10;;;26.30;38.50;;;;;;6286226;27;81532;-66
2022/05/11 13:45:17;;;;;;;6.40;3.38;;;26.20;38.20;;;;;;6286628;27;80999;-66
2022/05/11 13:48:19;;;;;;;9.65;3.47;;;26.10;37.80;;;;;;6285862;27;81006;-66
2022/05/11 13:51:20;;;;;;;4.20;3.10;;;26.20;37.90;;;;;;6284445;27;80531;-66
2022/05/11 13:54:21;;;;;;;4.38;3.03;;;26.20;38.50;;;;;;6286019;27;80441;-65
2022/05/11 13:57:21;;;;;;;4.00;3.00;;;26.20;38.50;;;;;;6286207;27;80635;-66
2022/05/11 14:00:24;;;;;;;5.20;2.65;;;26.20;38.20;;;;;;6286204;27;81031;-66
2022/05/11 14:03:27;;;;;;;4.00;3.10;;;26.20;38.20;;;;;;6285658;27;80397;-66
2022/05/11 14:06:28;;;;;;;8.25;3.50;;;26.20;38.70;;;;;;6282468;27;81156;-68
2022/05/11 14:09:28;;;;;;;8.13;3.47;;;26.20;38.30;;;;;;6285742;27;80232;-65
2022/05/11 14:12:29;;;;;;;5.68;3.05;;;26.20;38.30;;;;;;6285502;27;80649;-64
2022/05/11 14:15:30;;;;;;;3.97;2.85;;;26.30;38.30;;;;;;6285491;27;80576;-69
2022/05/11 14:18:30;;;;;;;9.32;3.30;;;26.40;39.10;;;;;;6271596;27;82459;-71
2022/05/11 14:21:31;;;;;;;5.95;3.10;;;26.30;39.00;;;;;;6281117;27;80697;-64
2022/05/11 14:24:31;;;;;;;6.22;3.53;;;26.30;39.40;;;;;;6268852;27;80393;-65
2022/05/11 14:27:32;;;;;;;6.55;3.35;;;26.20;39.10;;;;;;6265301;27;80610;-64
2022/05/11 14:30:32;;;;;;;9.30;3.50;;;26.20;39.30;;;;;;6268392;27;80602;-65
2022/05/11 14:33:33;;;;;;;10.68;3.90;;;26.20;39.70;;;;;;6263120;27;80343;-64
2022/05/11 14:36:33;;;;;;;6.60;3.25;;;26.20;39.20;;;;;;6283007;27;80542;-64
2022/05/11 14:39:34;;;;;;;5.10;3.30;;;26.20;39.30;;;;;;6284710;27;80436;-66
2022/05/11 14:42:34;;;;;;;8.27;3.97;;;26.10;39.30;;;;;;6272206;27;81189;-65
2022/05/11 14:45:35;;;;;;;7.50;2.90;;;26.10;39.50;;;;;;6268825;27;80255;-64
2022/05/11 14:48:35;;;;;;;6.82;3.67;;;26.10;39.60;;;;;;6284665;27;87059;-65
2022/05/11 14:51:38;;;;;;;5.70;3.50;;;26.10;39.70;;;;;;6284381;27;80720;-65
2022/05/11 14:54:38;;;;;;;6.53;3.28;;;26.20;39.90;;;;;;6266898;27;80659;-65
2022/05/11 15:04:17;;;;;;;8.75;3.42;;;26.20;39.90;;;;;;6285031;27;80245;-65
2022/05/11 15:07:18;;;;;;;5.60;3.33;;;26.10;39.60;;;;;;6284521;27;80369;-65
2022/05/11 15:10:18;;;;;;;5.65;3.25;;;26.10;39.20;;;;;;6284346;27;80674;-61
2022/05/11 15:13:31;;;;;;;7.38;3.97;;;26.10;39.60;;;;;;6284461;27;80757;-63
2022/05/11 15:16:32;;;;;;;5.63;3.67;;;26.10;39.60;;;;;;6273175;27;81271;-63
2022/05/11 15:19:32;;;;;;;4.82;3.20;;;26.20;39.80;;;;;;6280344;27;81011;-64
2022/05/11 15:22:33;;;;;;;5.13;3.13;;;26.10;39.50;;;;;;6275870;27;81555;-63
2022/05/11 15:25:34;;;;;;;4.15;3.22;;;26.10;39.70;;;;;;6284278;27;80267;-64
2022/05/11 15:28:34;;;;;;;4.45;3.20;;;26.10;39.50;;;;;;6284255;27;80368;-64
2022/05/11 15:31:35;;;;;;;5.68;2.78;;;26.10;39.80;;;;;;6280431;27;80315;-63
2022/05/11 15:34:35;;;;;;;9.55;3.60;;;26.10;39.70;;;;;;6280207;27;80311;-63
2022/05/11 15:37:36;;;;;;;6.03;3.83;;;26.10;40.10;;;;;;6283970;27;80503;-62
2022/05/11 15:40:36;;;;;;;5.78;3.75;;;26.10;40.10;;;;;;6284072;27;80403;-62
2022/05/11 15:43:37;;;;;;;9.57;3.50;;;26.10;39.90;;;;;;6269445;27;81761;-62
2022/05/11 15:46:38;;;;;;;5.80;3.67;;;26.10;40.10;;;;;;6268217;27;82028;-62
2022/05/11 15:49:39;;;;;;;6.68;2.97;;;26.10;39.80;;;;;;6271576;27;80293;-62
2022/05/11 15:52:39;;;;;;;11.15;3.30;;;26.10;39.80;;;;;;6266752;27;80781;-62
2022/05/11 15:55:40;;;;;;;8.40;3.70;;;26.10;40.00;;;;;;6267910;27;80897;-62
2022/05/11 15:58:40;;;;;;;7.70;3.15;;;26.10;40.60;;;;;;6270589;27;83636;-62
2022/05/11 16:01:42;;;;;;;5.72;3.10;;;26.10;40.80;;;;;;6283800;27;80592;-63
2022/05/11 16:04:43;;;;;;;5.90;2.83;;;26.10;40.90;;;;;;6282881;27;80102;-69
2022/05/11 16:07:43;;;;;;;5.03;2.78;;;26.10;41.20;;;;;;6283380;27;80987;-63
2022/05/11 16:10:44;;;;;;;5.75;3.35;;;26.10;41.50;;;;;;6283674;27;79891;-63
2022/05/11 16:13:44;;;;;;;9.98;4.28;;;26.10;41.40;;;;;;6283057;27;80519;-62
2022/05/11 16:16:45;;;;;;;9.52;3.28;;;26.00;41.30;;;;;;6279670;27;80255;-63
2022/05/11 16:19:51;;;;;;;9.13;3.33;;;26.00;40.60;;;;;;6276495;27;80813;-64
2022/05/11 16:22:52;;;;;;;4.82;3.15;;;26.00;41.00;;;;;;6263895;27;80659;-63
2022/05/11 16:25:55;;;;;;;5.65;3.13;;;26.00;41.40;;;;;;6271708;27;80544;-63
2022/05/11 16:28:56;;;;;;;4.72;3.58;;;26.00;41.20;;;;;;6282466;27;80642;-61
2022/05/11 16:31:57;;;;;;;5.28;3.47;;;26.00;41.40;;;;;;6283281;27;80713;-63